sensor_id;sensor_type;location;lat;lon;timestamp;pressure;altitude;pressure_sealevel;temperature;humidity
8653;BME280;4364;52.426;9.424;2023-06-14T00:02:21;101172.41;;;16.79;50.25
8653;BME280;4364;52.426;9.424;2023-06-14T00:04:48;101180.94;;;16.78;50.57
8653;BME280;4364;52.426;9.424;2023-06-14T00:07:17;101174.22;;;16.70;50.50
8653;BME280;4364;52.426;9.424;2023-06-14T00:09:45;101176.47;;;16.68;50.70
8653;BME280;4364;52.426;9.424;2023-06-14T00:12:11;101174.56;;;16.55;50.92
8653;BME280;4364;52.426;9.424;2023-06-14T00:14:38;101181.44;;;16.52;51.33
8653;BME280;4364;52.426;9.424;2023-06-14T00:17:04;101190.00;;;16.64;50.73
8653;BME280;4364;52.426;9.424;2023-06-14T00:19:33;101181.78;;;16.51;51.48
8653;BME280;4364;52.426;9.424;2023-06-14T00:22:02;101185.13;;;16.47;51.03
8653;BME280;4364;52.426;9.424;2023-06-14T00:24:29;101190.31;;;16.49;51.45
8653;BME280;4364;52.426;9.424;2023-06-14T00:26:56;101188.59;;;16.53;51.16
8653;BME280;4364;52.426;9.424;2023-06-14T00:29:23;101189.38;;;16.40;51.95
8653;BME280;4364;52.426;9.424;2023-06-14T00:31:49;101189.69;;;16.38;51.79
8653;BME280;4364;52.426;9.424;2023-06-14T00:34:17;101188.56;;;16.25;52.13
8653;BME280;4364;52.426;9.424;2023-06-14T00:36:44;101187.34;;;16.32;51.67
8653;BME280;4364;52.426;9.424;2023-06-14T00:39:13;101197.41;;;16.22;52.36
8653;BME280;4364;52.426;9.424;2023-06-14T00:41:39;101188.34;;;16.22;51.94
8653;BME280;4364;52.426;9.424;2023-06-14T00:44:06;101184.81;;;16.21;52.20
8653;BME280;4364;52.426;9.424;2023-06-14T00:46:33;101192.44;;;16.10;52.38
8653;BME280;4364;52.426;9.424;2023-06-14T00:49:00;101196.19;;;16.15;52.01
8653;BME280;4364;52.426;9.424;2023-06-14T00:51:27;101201.03;;;16.04;52.43
8653;BME280;4364;52.426;9.424;2023-06-14T00:53:54;101198.59;;;16.02;52.43
8653;BME280;4364;52.426;9.424;2023-06-14T00:56:21;101199.81;;;16.10;52.73
8653;BME280;4364;52.426;9.424;2023-06-14T00:58:50;101203.47;;;16.05;52.35
8653;BME280;4364;52.426;9.424;2023-06-14T01:01:17;101206.47;;;15.90;53.42
8653;BME280;4364;52.426;9.424;2023-06-14T01:03:44;101211.16;;;15.89;53.50
8653;BME280;4364;52.426;9.424;2023-06-14T01:06:33;101207.47;;;15.80;53.54
8653;BME280;4364;52.426;9.424;2023-06-14T01:09:33;101207.81;;;15.73;54.09
8653;BME280;4364;52.426;9.424;2023-06-14T01:12:13;101206.19;;;15.72;54.18
8653;BME280;4364;52.426;9.424;2023-06-14T01:14:42;101202.50;;;15.63;54.41
8653;BME280;4364;52.426;9.424;2023-06-14T01:17:08;101209.31;;;15.66;54.86
8653;BME280;4364;52.426;9.424;2023-06-14T01:19:43;101210.94;;;15.67;54.86
8653;BME280;4364;52.426;9.424;2023-06-14T01:22:12;101212.38;;;15.64;54.85
8653;BME280;4364;52.426;9.424;2023-06-14T01:24:39;101211.47;;;15.69;54.44
8653;BME280;4364;52.426;9.424;2023-06-14T01:27:11;101218.31;;;15.52;55.55
8653;BME280;4364;52.426;9.424;2023-06-14T01:29:40;101213.56;;;15.39;55.93
8653;BME280;4364;52.426;9.424;2023-06-14T01:32:14;101215.88;;;15.32;56.51
8653;BME280;4364;52.426;9.424;2023-06-14T01:34:40;101223.19;;;15.36;56.35
8653;BME280;4364;52.426;9.424;2023-06-14T01:37:08;101224.81;;;15.37;55.83
8653;BME280;4364;52.426;9.424;2023-06-14T01:39:35;101226.22;;;15.35;55.69
8653;BME280;4364;52.426;9.424;2023-06-14T01:42:01;101217.41;;;15.19;56.41
8653;BME280;4364;52.426;9.424;2023-06-14T01:44:29;101212.75;;;15.19;56.86
8653;BME280;4364;52.426;9.424;2023-06-14T01:47:00;101212.88;;;15.28;56.55
8653;BME280;4364;52.426;9.424;2023-06-14T01:49:27;101209.19;;;15.19;56.72
8653;BME280;4364;52.426;9.424;2023-06-14T01:51:54;101212.25;;;15.17;57.35
8653;BME280;4364;52.426;9.424;2023-06-14T01:54:21;101219.56;;;15.22;56.68
8653;BME280;4364;52.426;9.424;2023-06-14T01:56:48;101213.91;;;15.13;57.53
8653;BME280;4364;52.426;9.424;2023-06-14T01:59:15;101207.50;;;15.04;57.62
8653;BME280;4364;52.426;9.424;2023-06-14T02:01:42;101213.09;;;14.94;58.13
8653;BME280;4364;52.426;9.424;2023-06-14T02:04:08;101209.25;;;14.95;58.43
8653;BME280;4364;52.426;9.424;2023-06-14T02:06:36;101211.47;;;14.93;58.75
8653;BME280;4364;52.426;9.424;2023-06-14T02:09:03;101215.38;;;14.87;58.72
8653;BME280;4364;52.426;9.424;2023-06-14T02:11:30;101209.38;;;14.85;58.83
8653;BME280;4364;52.426;9.424;2023-06-14T02:13:57;101213.88;;;14.75;59.51
8653;BME280;4364;52.426;9.424;2023-06-14T02:16:26;101219.88;;;14.77;59.70
8653;BME280;4364;52.426;9.424;2023-06-14T02:18:54;101220.22;;;14.71;59.88
8653;BME280;4364;52.426;9.424;2023-06-14T02:21:22;101226.88;;;14.64;60.18
8653;BME280;4364;52.426;9.424;2023-06-14T02:23:49;101220.66;;;14.59;60.26
8653;BME280;4364;52.426;9.424;2023-06-14T02:26:16;101226.16;;;14.54;60.19
8653;BME280;4364;52.426;9.424;2023-06-14T02:28:42;101229.16;;;14.52;60.91
8653;BME280;4364;52.426;9.424;2023-06-14T02:31:09;101228.88;;;14.54;60.63
8653;BME280;4364;52.426;9.424;2023-06-14T02:33:35;101237.09;;;14.54;60.93
8653;BME280;4364;52.426;9.424;2023-06-14T02:36:02;101233.16;;;14.36;61.75
8653;BME280;4364;52.426;9.424;2023-06-14T02:38:29;101240.84;;;14.34;61.83
8653;BME280;4364;52.426;9.424;2023-06-14T02:40:56;101241.47;;;14.25;62.11
8653;BME280;4364;52.426;9.424;2023-06-14T02:43:23;101246.50;;;14.13;62.31
8653;BME280;4364;52.426;9.424;2023-06-14T02:45:49;101246.25;;;14.09;62.77
8653;BME280;4364;52.426;9.424;2023-06-14T02:48:16;101252.81;;;14.14;62.83
8653;BME280;4364;52.426;9.424;2023-06-14T02:50:42;101246.22;;;14.15;62.93
8653;BME280;4364;52.426;9.424;2023-06-14T02:53:09;101247.81;;;14.21;62.36
8653;BME280;4364;52.426;9.424;2023-06-14T02:55:37;101247.63;;;14.12;63.09
8653;BME280;4364;52.426;9.424;2023-06-14T02:58:06;101259.88;;;14.15;63.05
8653;BME280;4364;52.426;9.424;2023-06-14T03:00:33;101255.63;;;14.03;63.51
8653;BME280;4364;52.426;9.424;2023-06-14T03:03:01;101259.19;;;14.04;63.79
8653;BME280;4364;52.426;9.424;2023-06-14T03:05:28;101263.13;;;13.87;64.57
8653;BME280;4364;52.426;9.424;2023-06-14T03:07:55;101259.78;;;13.96;64.11
8653;BME280;4364;52.426;9.424;2023-06-14T03:10:22;101257.66;;;13.87;64.17
8653;BME280;4364;52.426;9.424;2023-06-14T03:12:50;101260.06;;;13.94;64.15
8653;BME280;4364;52.426;9.424;2023-06-14T03:15:20;101261.16;;;13.98;63.96
8653;BME280;4364;52.426;9.424;2023-06-14T03:17:50;101260.91;;;13.89;64.29
8653;BME280;4364;52.426;9.424;2023-06-14T03:20:20;101256.56;;;13.88;64.38
8653;BME280;4364;52.426;9.424;2023-06-14T03:22:47;101262.81;;;13.94;64.07
8653;BME280;4364;52.426;9.424;2023-06-14T03:25:14;101266.97;;;13.86;64.16
8653;BME280;4364;52.426;9.424;2023-06-14T03:27:43;101260.44;;;13.82;64.82
8653;BME280;4364;52.426;9.424;2023-06-14T03:30:10;101265.38;;;13.80;64.72
8653;BME280;4364;52.426;9.424;2023-06-14T03:32:37;101265.66;;;13.79;65.03
8653;BME280;4364;52.426;9.424;2023-06-14T03:35:05;101268.00;;;13.56;65.95
8653;BME280;4364;52.426;9.424;2023-06-14T03:37:32;101274.88;;;13.48;66.10
8653;BME280;4364;52.426;9.424;2023-06-14T03:39:59;101283.41;;;13.42;66.80
8653;BME280;4364;52.426;9.424;2023-06-14T03:42:30;101280.69;;;13.31;66.90
8653;BME280;4364;52.426;9.424;2023-06-14T03:44:57;101281.22;;;13.39;66.85
8653;BME280;4364;52.426;9.424;2023-06-14T03:47:23;101279.88;;;13.26;67.39
8653;BME280;4364;52.426;9.424;2023-06-14T03:49:51;101287.78;;;13.38;67.55
8653;BME280;4364;52.426;9.424;2023-06-14T03:52:17;101287.81;;;13.32;67.62
8653;BME280;4364;52.426;9.424;2023-06-14T03:54:45;101285.59;;;13.34;67.37
8653;BME280;4364;52.426;9.424;2023-06-14T03:57:15;101287.22;;;13.41;67.67
8653;BME280;4364;52.426;9.424;2023-06-14T03:59:43;101285.88;;;13.33;67.73
8653;BME280;4364;52.426;9.424;2023-06-14T04:02:10;101291.63;;;13.37;67.92
8653;BME280;4364;52.426;9.424;2023-06-14T04:04:36;101298.97;;;13.36;67.89
8653;BME280;4364;52.426;9.424;2023-06-14T04:07:04;101294.00;;;13.48;67.59
8653;BME280;4364;52.426;9.424;2023-06-14T04:09:31;101297.59;;;13.44;67.78
8653;BME280;4364;52.426;9.424;2023-06-14T04:11:58;101295.69;;;13.39;68.10
8653;BME280;4364;52.426;9.424;2023-06-14T04:14:24;101303.03;;;13.44;68.35
8653;BME280;4364;52.426;9.424;2023-06-14T04:16:51;101304.59;;;13.60;67.77
8653;BME280;4364;52.426;9.424;2023-06-14T04:19:19;101310.06;;;13.60;67.69
8653;BME280;4364;52.426;9.424;2023-06-14T04:21:46;101305.09;;;13.67;67.77
8653;BME280;4364;52.426;9.424;2023-06-14T04:24:14;101302.56;;;13.76;67.21
8653;BME280;4364;52.426;9.424;2023-06-14T04:26:44;101306.38;;;13.80;66.57
8653;BME280;4364;52.426;9.424;2023-06-14T04:29:13;101312.03;;;13.94;66.32
8653;BME280;4364;52.426;9.424;2023-06-14T04:31:42;101316.41;;;13.95;66.44
8653;BME280;4364;52.426;9.424;2023-06-14T04:34:10;101315.28;;;13.96;66.55
8653;BME280;4364;52.426;9.424;2023-06-14T04:36:49;101323.19;;;13.98;66.16
8653;BME280;4364;52.426;9.424;2023-06-14T04:39:20;101330.00;;;14.05;66.08
8653;BME280;4364;52.426;9.424;2023-06-14T04:41:48;101320.06;;;14.15;66.15
8653;BME280;4364;52.426;9.424;2023-06-14T04:44:19;101334.47;;;14.25;65.58
8653;BME280;4364;52.426;9.424;2023-06-14T04:46:51;101339.63;;;14.32;65.40
8653;BME280;4364;52.426;9.424;2023-06-14T04:49:21;101337.19;;;14.31;65.21
8653;BME280;4364;52.426;9.424;2023-06-14T04:51:53;101344.31;;;14.26;65.70
8653;BME280;4364;52.426;9.424;2023-06-14T04:54:25;101339.88;;;14.36;65.02
8653;BME280;4364;52.426;9.424;2023-06-14T04:56:52;101347.75;;;14.42;64.96
8653;BME280;4364;52.426;9.424;2023-06-14T04:59:24;101345.47;;;14.50;64.59
8653;BME280;4364;52.426;9.424;2023-06-14T05:01:51;101348.44;;;14.58;64.67
8653;BME280;4364;52.426;9.424;2023-06-14T05:04:19;101348.97;;;14.60;64.29
8653;BME280;4364;52.426;9.424;2023-06-14T05:06:47;101340.31;;;14.77;64.08
8653;BME280;4364;52.426;9.424;2023-06-14T05:09:17;101345.97;;;14.86;62.93
8653;BME280;4364;52.426;9.424;2023-06-14T05:11:43;101339.53;;;15.01;62.44
8653;BME280;4364;52.426;9.424;2023-06-14T05:14:11;101342.31;;;14.96;62.20
8653;BME280;4364;52.426;9.424;2023-06-14T05:16:38;101357.72;;;14.92;62.90
8653;BME280;4364;52.426;9.424;2023-06-14T05:19:06;101354.84;;;15.02;62.55
8653;BME280;4364;52.426;9.424;2023-06-14T05:21:32;101356.47;;;15.03;62.57
8653;BME280;4364;52.426;9.424;2023-06-14T05:24:07;101362.59;;;15.19;61.74
8653;BME280;4364;52.426;9.424;2023-06-14T05:26:35;101362.16;;;15.12;62.21
8653;BME280;4364;52.426;9.424;2023-06-14T05:29:02;101358.09;;;15.28;61.98
8653;BME280;4364;52.426;9.424;2023-06-14T05:31:29;101363.78;;;15.37;61.88
8653;BME280;4364;52.426;9.424;2023-06-14T05:33:56;101371.34;;;15.64;60.90
8653;BME280;4364;52.426;9.424;2023-06-14T05:36:22;101362.72;;;15.76;60.87
8653;BME280;4364;52.426;9.424;2023-06-14T05:38:49;101365.16;;;15.97;59.84
8653;BME280;4364;52.426;9.424;2023-06-14T05:41:17;101367.16;;;16.29;58.70
8653;BME280;4364;52.426;9.424;2023-06-14T05:43:43;101370.81;;;16.71;57.17
8653;BME280;4364;52.426;9.424;2023-06-14T05:46:10;101367.03;;;17.00;55.65
8653;BME280;4364;52.426;9.424;2023-06-14T05:48:36;101365.91;;;17.15;55.02
8653;BME280;4364;52.426;9.424;2023-06-14T05:51:03;101371.94;;;17.31;54.72
8653;BME280;4364;52.426;9.424;2023-06-14T05:53:30;101374.59;;;17.72;53.85
8653;BME280;4364;52.426;9.424;2023-06-14T05:55:56;101372.91;;;18.13;51.95
8653;BME280;4364;52.426;9.424;2023-06-14T05:58:23;101376.75;;;18.57;50.31
8653;BME280;4364;52.426;9.424;2023-06-14T06:00:49;101369.91;;;18.77;49.59
8653;BME280;4364;52.426;9.424;2023-06-14T06:03:17;101376.50;;;18.99;47.85
8653;BME280;4364;52.426;9.424;2023-06-14T06:05:43;101372.47;;;18.74;48.15
8653;BME280;4364;52.426;9.424;2023-06-14T06:08:10;101378.28;;;18.95;47.00
8653;BME280;4364;52.426;9.424;2023-06-14T06:10:36;101388.69;;;18.75;46.92
8653;BME280;4364;52.426;9.424;2023-06-14T06:13:03;101384.53;;;18.55;48.57
8653;BME280;4364;52.426;9.424;2023-06-14T06:15:30;101386.50;;;18.86;48.58
8653;BME280;4364;52.426;9.424;2023-06-14T06:17:56;101396.06;;;19.20;47.20
8653;BME280;4364;52.426;9.424;2023-06-14T06:20:24;101386.19;;;19.28;46.53
8653;BME280;4364;52.426;9.424;2023-06-14T06:22:57;101381.06;;;18.95;46.67
8653;BME280;4364;52.426;9.424;2023-06-14T06:25:24;101386.38;;;19.31;46.50
8653;BME280;4364;52.426;9.424;2023-06-14T06:27:53;101390.56;;;19.20;46.20
8653;BME280;4364;52.426;9.424;2023-06-14T06:30:20;101391.69;;;19.19;45.81
8653;BME280;4364;52.426;9.424;2023-06-14T06:32:46;101387.34;;;18.86;46.79
8653;BME280;4364;52.426;9.424;2023-06-14T06:35:14;101393.81;;;19.22;46.54
8653;BME280;4364;52.426;9.424;2023-06-14T06:37:42;101399.72;;;19.38;46.00
8653;BME280;4364;52.426;9.424;2023-06-14T06:40:09;101400.38;;;19.52;45.38
8653;BME280;4364;52.426;9.424;2023-06-14T06:42:36;101401.59;;;19.86;45.71
8653;BME280;4364;52.426;9.424;2023-06-14T06:45:04;101408.78;;;20.13;44.69
8653;BME280;4364;52.426;9.424;2023-06-14T06:47:31;101415.34;;;19.60;45.43
8653;BME280;4364;52.426;9.424;2023-06-14T06:49:58;101415.13;;;19.48;46.42
8653;BME280;4364;52.426;9.424;2023-06-14T06:52:24;101422.19;;;19.71;46.08
8653;BME280;4364;52.426;9.424;2023-06-14T06:54:51;101420.53;;;19.61;45.93
8653;BME280;4364;52.426;9.424;2023-06-14T06:57:21;101418.31;;;19.81;45.12
8653;BME280;4364;52.426;9.424;2023-06-14T06:59:49;101416.69;;;19.80;45.44
8653;BME280;4364;52.426;9.424;2023-06-14T07:02:16;101415.75;;;19.93;45.01
8653;BME280;4364;52.426;9.424;2023-06-14T07:04:43;101418.03;;;19.91;45.30
8653;BME280;4364;52.426;9.424;2023-06-14T07:07:09;101419.91;;;19.65;45.58
8653;BME280;4364;52.426;9.424;2023-06-14T07:09:36;101418.59;;;19.71;45.30
8653;BME280;4364;52.426;9.424;2023-06-14T07:12:04;101419.47;;;19.97;45.38
8653;BME280;4364;52.426;9.424;2023-06-14T07:14:31;101426.31;;;20.35;44.26
8653;BME280;4364;52.426;9.424;2023-06-14T07:16:57;101424.53;;;20.65;43.34
8653;BME280;4364;52.426;9.424;2023-06-14T07:19:24;101421.59;;;20.70;43.45
8653;BME280;4364;52.426;9.424;2023-06-14T07:21:51;101423.72;;;20.30;44.00
8653;BME280;4364;52.426;9.424;2023-06-14T07:24:19;101426.78;;;20.11;44.10
8653;BME280;4364;52.426;9.424;2023-06-14T07:26:47;101433.78;;;20.17;43.76
8653;BME280;4364;52.426;9.424;2023-06-14T07:29:17;101431.50;;;20.45;43.55
8653;BME280;4364;52.426;9.424;2023-06-14T07:31:43;101426.31;;;20.35;43.99
8653;BME280;4364;52.426;9.424;2023-06-14T07:34:10;101428.41;;;20.55;42.56
8653;BME280;4364;52.426;9.424;2023-06-14T07:36:37;101422.06;;;20.38;43.09
8653;BME280;4364;52.426;9.424;2023-06-14T07:39:04;101434.75;;;20.47;42.83
8653;BME280;4364;52.426;9.424;2023-06-14T07:41:32;101435.22;;;20.49;42.99
8653;BME280;4364;52.426;9.424;2023-06-14T07:43:59;101436.84;;;20.85;42.54
8653;BME280;4364;52.426;9.424;2023-06-14T07:46:26;101445.53;;;21.14;41.49
8653;BME280;4364;52.426;9.424;2023-06-14T07:48:53;101432.88;;;21.42;40.82
8653;BME280;4364;52.426;9.424;2023-06-14T07:51:20;101428.22;;;21.64;40.03
8653;BME280;4364;52.426;9.424;2023-06-14T07:53:48;101438.25;;;21.39;41.12
8653;BME280;4364;52.426;9.424;2023-06-14T07:56:15;101435.16;;;21.49;40.17
8653;BME280;4364;52.426;9.424;2023-06-14T07:58:42;101436.41;;;21.60;39.73
8653;BME280;4364;52.426;9.424;2023-06-14T08:01:08;101441.84;;;21.99;39.06
8653;BME280;4364;52.426;9.424;2023-06-14T08:03:35;101433.97;;;21.80;39.46
8653;BME280;4364;52.426;9.424;2023-06-14T08:06:02;101443.75;;;22.07;38.49
8653;BME280;4364;52.426;9.424;2023-06-14T08:08:29;101447.19;;;22.04;37.99
8653;BME280;4364;52.426;9.424;2023-06-14T08:10:56;101444.00;;;22.14;38.37
8653;BME280;4364;52.426;9.424;2023-06-14T08:13:23;101426.50;;;22.23;38.02
8653;BME280;4364;52.426;9.424;2023-06-14T08:15:50;101437.78;;;22.17;37.99
8653;BME280;4364;52.426;9.424;2023-06-14T08:18:16;101426.31;;;21.56;38.97
8653;BME280;4364;52.426;9.424;2023-06-14T08:20:43;101433.25;;;21.32;39.08
8653;BME280;4364;52.426;9.424;2023-06-14T08:23:10;101434.25;;;21.27;40.28
8653;BME280;4364;52.426;9.424;2023-06-14T08:25:37;101433.53;;;21.39;40.21
8653;BME280;4364;52.426;9.424;2023-06-14T08:28:04;101433.72;;;21.73;39.50
8653;BME280;4364;52.426;9.424;2023-06-14T08:30:31;101431.41;;;21.75;39.50
8653;BME280;4364;52.426;9.424;2023-06-14T08:32:57;101439.44;;;21.29;40.20
8653;BME280;4364;52.426;9.424;2023-06-14T08:35:40;101434.75;;;21.59;39.34
8653;BME280;4364;52.426;9.424;2023-06-14T08:38:07;101429.94;;;21.77;38.57
8653;BME280;4364;52.426;9.424;2023-06-14T08:40:36;101437.81;;;21.67;38.54
8653;BME280;4364;52.426;9.424;2023-06-14T08:43:03;101441.00;;;21.77;38.71
8653;BME280;4364;52.426;9.424;2023-06-14T08:45:30;101429.97;;;21.39;39.43
8653;BME280;4364;52.426;9.424;2023-06-14T08:47:58;101440.19;;;21.38;39.30
8653;BME280;4364;52.426;9.424;2023-06-14T08:50:27;101429.28;;;21.51;39.37
8653;BME280;4364;52.426;9.424;2023-06-14T08:52:59;101437.59;;;21.72;39.44
8653;BME280;4364;52.426;9.424;2023-06-14T08:55:31;101446.50;;;22.07;38.40
8653;BME280;4364;52.426;9.424;2023-06-14T08:58:02;101435.44;;;22.07;38.24
8653;BME280;4364;52.426;9.424;2023-06-14T09:00:30;101447.59;;;22.36;38.23
8653;BME280;4364;52.426;9.424;2023-06-14T09:02:59;101445.56;;;22.45;38.02
8653;BME280;4364;52.426;9.424;2023-06-14T09:05:28;101441.63;;;22.67;37.49
8653;BME280;4364;52.426;9.424;2023-06-14T09:07:55;101437.38;;;22.28;37.39
8653;BME280;4364;52.426;9.424;2023-06-14T09:10:24;101445.34;;;22.08;38.27
8653;BME280;4364;52.426;9.424;2023-06-14T09:12:53;101449.81;;;22.21;38.26
8653;BME280;4364;52.426;9.424;2023-06-14T09:15:20;101448.88;;;22.17;37.13
8653;BME280;4364;52.426;9.424;2023-06-14T09:17:47;101442.13;;;22.27;38.29
8653;BME280;4364;52.426;9.424;2023-06-14T09:20:14;101444.50;;;22.71;37.56
8653;BME280;4364;52.426;9.424;2023-06-14T09:22:45;101456.53;;;22.75;37.46
8653;BME280;4364;52.426;9.424;2023-06-14T09:25:12;101442.28;;;22.98;35.58
8653;BME280;4364;52.426;9.424;2023-06-14T09:27:59;101449.19;;;22.58;36.62
8653;BME280;4364;52.426;9.424;2023-06-14T09:30:25;101434.00;;;23.10;35.88
8653;BME280;4364;52.426;9.424;2023-06-14T09:32:52;101451.53;;;22.68;36.24
8653;BME280;4364;52.426;9.424;2023-06-14T09:35:20;101444.06;;;22.69;36.25
8653;BME280;4364;52.426;9.424;2023-06-14T09:37:47;101448.19;;;22.63;36.54
8653;BME280;4364;52.426;9.424;2023-06-14T09:40:20;101451.47;;;22.44;37.36
8653;BME280;4364;52.426;9.424;2023-06-14T09:42:47;101449.19;;;22.58;36.70
8653;BME280;4364;52.426;9.424;2023-06-14T09:45:14;101455.53;;;22.58;37.08
8653;BME280;4364;52.426;9.424;2023-06-14T09:47:46;101446.09;;;22.60;36.81
8653;BME280;4364;52.426;9.424;2023-06-14T09:50:31;101436.31;;;23.08;36.67
8653;BME280;4364;52.426;9.424;2023-06-14T09:53:02;101442.81;;;23.61;35.83
8653;BME280;4364;52.426;9.424;2023-06-14T09:55:30;101438.88;;;23.62;35.63
8653;BME280;4364;52.426;9.424;2023-06-14T09:57:58;101432.59;;;23.65;35.41
8653;BME280;4364;52.426;9.424;2023-06-14T10:00:26;101428.00;;;23.82;34.86
8653;BME280;4364;52.426;9.424;2023-06-14T10:02:54;101425.59;;;24.21;34.50
8653;BME280;4364;52.426;9.424;2023-06-14T10:05:27;101426.59;;;24.29;33.97
8653;BME280;4364;52.426;9.424;2023-06-14T10:08:08;101433.56;;;24.51;33.68
8653;BME280;4364;52.426;9.424;2023-06-14T10:10:35;101424.66;;;24.73;32.88
8653;BME280;4364;52.426;9.424;2023-06-14T10:13:01;101417.25;;;24.77;32.87
8653;BME280;4364;52.426;9.424;2023-06-14T10:15:34;101426.50;;;24.98;33.08
8653;BME280;4364;52.426;9.424;2023-06-14T10:18:07;101418.13;;;24.37;33.67
8653;BME280;4364;52.426;9.424;2023-06-14T10:21:32;101425.88;;;24.32;33.42
8653;BME280;4364;52.426;9.424;2023-06-14T10:23:38;101417.81;;;24.55;33.61
8653;BME280;4364;52.426;9.424;2023-06-14T10:26:06;101416.44;;;24.93;32.72
8653;BME280;4364;52.426;9.424;2023-06-14T10:28:37;101413.09;;;24.71;33.51
8653;BME280;4364;52.426;9.424;2023-06-14T10:31:08;101413.84;;;24.84;32.39
8653;BME280;4364;52.426;9.424;2023-06-14T10:33:39;101413.28;;;24.63;32.51
8653;BME280;4364;52.426;9.424;2023-06-14T10:36:28;101406.22;;;24.81;32.43
8653;BME280;4364;52.426;9.424;2023-06-14T10:39:18;101413.72;;;24.81;32.45
8653;BME280;4364;52.426;9.424;2023-06-14T10:41:53;101417.44;;;24.85;32.02
8653;BME280;4364;52.426;9.424;2023-06-14T10:46:48;101410.50;;;24.78;32.13
8653;BME280;4364;52.426;9.424;2023-06-14T10:49:18;101412.16;;;25.11;31.45
8653;BME280;4364;52.426;9.424;2023-06-14T10:51:51;101395.25;;;25.52;31.43
8653;BME280;4364;52.426;9.424;2023-06-14T10:54:22;101403.44;;;24.81;31.57
8653;BME280;4364;52.426;9.424;2023-06-14T10:56:52;101400.63;;;24.37;32.81
8653;BME280;4364;52.426;9.424;2023-06-14T10:59:19;101400.19;;;24.79;32.25
8653;BME280;4364;52.426;9.424;2023-06-14T11:02:22;101401.00;;;25.27;31.83
8653;BME280;4364;52.426;9.424;2023-06-14T11:05:03;101396.59;;;25.42;31.71
8653;BME280;4364;52.426;9.424;2023-06-14T11:10:32;101402.50;;;25.57;31.20
8653;BME280;4364;52.426;9.424;2023-06-14T11:13:02;101397.06;;;25.80;30.87
8653;BME280;4364;52.426;9.424;2023-06-14T11:15:30;101407.44;;;25.99;31.29
8653;BME280;4364;52.426;9.424;2023-06-14T11:17:59;101397.06;;;25.44;31.19
8653;BME280;4364;52.426;9.424;2023-06-14T11:20:27;101407.19;;;24.89;32.00
8653;BME280;4364;52.426;9.424;2023-06-14T11:22:54;101395.03;;;24.49;32.94
8653;BME280;4364;52.426;9.424;2023-06-14T11:25:21;101391.84;;;24.63;32.41
8653;BME280;4364;52.426;9.424;2023-06-14T11:27:49;101390.44;;;25.01;32.81
8653;BME280;4364;52.426;9.424;2023-06-14T11:30:16;101380.34;;;25.12;32.37
8653;BME280;4364;52.426;9.424;2023-06-14T11:32:46;101383.41;;;25.07;32.64
8653;BME280;4364;52.426;9.424;2023-06-14T11:35:14;101385.38;;;25.39;31.92
8653;BME280;4364;52.426;9.424;2023-06-14T11:37:41;101385.97;;;25.64;31.40
8653;BME280;4364;52.426;9.424;2023-06-14T11:40:12;101391.03;;;25.10;32.11
8653;BME280;4364;52.426;9.424;2023-06-14T11:42:40;101380.00;;;24.82;32.42
8653;BME280;4364;52.426;9.424;2023-06-14T11:45:08;101387.63;;;24.85;32.31
8653;BME280;4364;52.426;9.424;2023-06-14T11:47:36;101379.00;;;25.22;32.15
8653;BME280;4364;52.426;9.424;2023-06-14T11:50:09;101377.69;;;25.32;32.15
8653;BME280;4364;52.426;9.424;2023-06-14T11:52:36;101372.41;;;25.11;32.03
8653;BME280;4364;52.426;9.424;2023-06-14T11:55:04;101374.16;;;24.87;32.58
8653;BME280;4364;52.426;9.424;2023-06-14T11:57:35;101381.19;;;24.81;32.21
8653;BME280;4364;52.426;9.424;2023-06-14T12:00:04;101374.91;;;24.40;33.09
8653;BME280;4364;52.426;9.424;2023-06-14T12:02:41;101368.03;;;24.50;32.87
8653;BME280;4364;52.426;9.424;2023-06-14T12:05:08;101370.59;;;24.87;32.59
8653;BME280;4364;52.426;9.424;2023-06-14T12:07:37;101368.81;;;24.94;32.84
8653;BME280;4364;52.426;9.424;2023-06-14T12:10:04;101365.03;;;25.03;32.41
8653;BME280;4364;52.426;9.424;2023-06-14T12:12:39;101356.69;;;25.03;32.66
8653;BME280;4364;52.426;9.424;2023-06-14T12:15:09;101376.25;;;24.74;33.51
8653;BME280;4364;52.426;9.424;2023-06-14T12:17:39;101358.38;;;24.31;33.94
8653;BME280;4364;52.426;9.424;2023-06-14T12:20:09;101361.47;;;24.14;35.06
8653;BME280;4364;52.426;9.424;2023-06-14T12:22:52;101371.13;;;24.04;35.29
8653;BME280;4364;52.426;9.424;2023-06-14T12:25:33;101359.47;;;24.87;33.76
8653;BME280;4364;52.426;9.424;2023-06-14T12:28:07;101361.69;;;25.45;32.44
8653;BME280;4364;52.426;9.424;2023-06-14T12:30:35;101362.41;;;25.42;32.55
8653;BME280;4364;52.426;9.424;2023-06-14T12:33:03;101360.88;;;25.12;32.84
8653;BME280;4364;52.426;9.424;2023-06-14T12:35:30;101360.00;;;24.92;33.86
8653;BME280;4364;52.426;9.424;2023-06-14T12:37:57;101367.34;;;24.40;34.23
8653;BME280;4364;52.426;9.424;2023-06-14T12:40:24;101363.63;;;24.20;34.91
8653;BME280;4364;52.426;9.424;2023-06-14T12:42:50;101371.69;;;24.54;34.43
8653;BME280;4364;52.426;9.424;2023-06-14T12:45:17;101366.63;;;24.72;34.08
8653;BME280;4364;52.426;9.424;2023-06-14T12:47:44;101368.38;;;24.48;34.63
8653;BME280;4364;52.426;9.424;2023-06-14T12:50:11;101366.28;;;24.73;34.24
8653;BME280;4364;52.426;9.424;2023-06-14T12:52:37;101359.91;;;25.05;33.94
8653;BME280;4364;52.426;9.424;2023-06-14T12:55:04;101371.47;;;24.75;34.51
8653;BME280;4364;52.426;9.424;2023-06-14T12:57:31;101368.31;;;24.60;34.31
8653;BME280;4364;52.426;9.424;2023-06-14T12:59:59;101355.97;;;24.46;34.94
8653;BME280;4364;52.426;9.424;2023-06-14T13:02:26;101365.59;;;24.48;34.57
8653;BME280;4364;52.426;9.424;2023-06-14T13:04:53;101349.94;;;24.72;34.45
8653;BME280;4364;52.426;9.424;2023-06-14T13:07:20;101360.19;;;25.00;34.22
8653;BME280;4364;52.426;9.424;2023-06-14T13:09:46;101351.41;;;25.29;33.74
8653;BME280;4364;52.426;9.424;2023-06-14T13:12:13;101352.47;;;25.60;33.42
8653;BME280;4364;52.426;9.424;2023-06-14T13:14:40;101343.72;;;25.42;33.37
8653;BME280;4364;52.426;9.424;2023-06-14T13:17:10;101342.47;;;25.40;33.54
8653;BME280;4364;52.426;9.424;2023-06-14T13:19:37;101346.97;;;25.64;33.75
8653;BME280;4364;52.426;9.424;2023-06-14T13:22:04;101341.56;;;25.91;32.96
8653;BME280;4364;52.426;9.424;2023-06-14T13:24:31;101337.91;;;26.25;32.38